Time;durP1;ratioP1;P1;durP2;ratioP2;P2;SDS_P1;SDS_P2;PMS_P1;PMS_P2;Temp;Humidity;BMP_temperature;BMP_pressure;BME280_temperature;BME280_humidity;BME280_pressure;Samples;Min_cycle;Max_cycle;Signal;HPM_P1;HPM_P2
2023/12/07 00:00:28;;;;;;;352.00;97.93;;;;;;;;;;5112587;28;20115;-76
2023/12/07 00:02:54;;;;;;;344.58;100.78;;;;;;;;;;5112088;28;20094;-74
2023/12/07 00:05:20;;;;;;;373.90;105.60;;;;;;;;;;5112811;28;20103;-75
2023/12/07 00:07:46;;;;;;;363.50;101.05;;;;;;;;;;5112825;28;20070;-75
2023/12/07 00:10:12;;;;;;;359.60;100.80;;;;;;;;;;5113032;28;20023;-75
2023/12/07 00:12:38;;;;;;;362.10;103.40;;;;;;;;;;5112066;28;20035;-74
2023/12/07 00:15:04;;;;;;;365.08;102.55;;;;;;;;;;5112030;28;20043;-74
2023/12/07 00:17:30;;;;;;;368.77;102.90;;;;;;;;;;5111401;28;20041;-75
2023/12/07 00:19:56;;;;;;;340.02;101.45;;;;;;;;;;5112540;28;20595;-74
2023/12/07 00:22:24;;;;;;;345.55;102.57;;;;;;;;;;5112538;28;20028;-75
2023/12/07 00:24:50;;;;;;;332.02;98.68;;;;;;;;;;5113106;28;20031;-75
2023/12/07 00:27:16;;;;;;;329.23;99.07;;;;;;;;;;5111548;28;20039;-75
2023/12/07 00:29:42;;;;;;;335.98;102.88;;;;;;;;;;5113575;28;20189;-75
2023/12/07 00:32:08;;;;;;;324.70;97.05;;;;;;;;;;5112015;28;20028;-73
2023/12/07 00:34:34;;;;;;;343.60;97.53;;;;;;;;;;5115644;28;20038;-73
2023/12/07 00:37:00;;;;;;;328.02;100.55;;;;;;;;;;5115995;28;20111;-74
2023/12/07 00:39:26;;;;;;;322.15;96.57;;;;;;;;;;5113613;28;20043;-75
2023/12/07 00:41:52;;;;;;;322.08;97.03;;;;;;;;;;5112126;28;20113;-74
2023/12/07 00:44:18;;;;;;;325.83;99.47;;;;;;;;;;5112640;28;20024;-74
2023/12/07 00:46:44;;;;;;;295.00;94.43;;;;;;;;;;5112587;28;20382;-74
2023/12/07 00:49:10;;;;;;;279.70;92.45;;;;;;;;;;5111534;28;20024;-72
2023/12/07 00:51:36;;;;;;;286.92;92.80;;;;;;;;;;5111523;28;20027;-72
2023/12/07 00:54:03;;;;;;;274.85;89.47;;;;;;;;;;5110339;28;20040;-74
2023/12/07 00:56:29;;;;;;;293.90;93.10;;;;;;;;;;5111734;28;20020;-74
2023/12/07 00:58:55;;;;;;;283.05;92.25;;;;;;;;;;5111572;28;20039;-74
2023/12/07 01:01:21;;;;;;;274.85;90.13;;;;;;;;;;5108172;28;20486;-74
2023/12/07 01:03:47;;;;;;;278.30;88.68;;;;;;;;;;5103133;28;20058;-74
2023/12/07 01:06:13;;;;;;;264.85;85.68;;;;;;;;;;5099384;28;20513;-73
2023/12/07 01:08:39;;;;;;;269.55;90.80;;;;;;;;;;5091271;28;20206;-73
2023/12/07 01:11:05;;;;;;;265.80;89.40;;;;;;;;;;5091293;28;20479;-75
2023/12/07 01:13:31;;;;;;;268.90;89.50;;;;;;;;;;5091267;28;20024;-75
2023/12/07 01:15:57;;;;;;;244.57;86.88;;;;;;;;;;5091452;28;20039;-74
2023/12/07 01:18:23;;;;;;;263.20;86.90;;;;;;;;;;5091084;28;20103;-74
2023/12/07 01:20:50;;;;;;;268.83;89.63;;;;;;;;;;5091353;28;20028;-74
2023/12/07 01:23:16;;;;;;;257.52;90.75;;;;;;;;;;5091405;28;20032;-74
2023/12/07 01:25:42;;;;;;;249.40;87.60;;;;;;;;;;5091295;28;20093;-74
2023/12/07 01:28:09;;;;;;;249.20;85.97;;;;;;;;;;5093467;28;20027;-75
2023/12/07 01:30:36;;;;;;;239.30;82.78;;;;;;;;;;5095165;28;20031;-73
2023/12/07 01:33:02;;;;;;;242.15;83.95;;;;;;;;;;5094958;28;20031;-74
2023/12/07 01:35:28;;;;;;;243.65;85.65;;;;;;;;;;5095389;28;20082;-74
2023/12/07 01:37:54;;;;;;;233.57;84.32;;;;;;;;;;5094911;28;20028;-75
2023/12/07 01:40:20;;;;;;;248.55;85.38;;;;;;;;;;5094803;28;20034;-74
2023/12/07 01:42:50;;;;;;;228.43;83.57;;;;;;;;;;5095086;28;20028;-74
2023/12/07 01:45:16;;;;;;;224.20;80.93;;;;;;;;;;5094855;28;20047;-75
2023/12/07 01:47:42;;;;;;;238.68;82.10;;;;;;;;;;5094499;28;20030;-75
2023/12/07 01:50:08;;;;;;;250.82;86.05;;;;;;;;;;5094581;28;20454;-75
2023/12/07 01:52:36;;;;;;;241.07;83.47;;;;;;;;;;5094422;28;20020;-74
2023/12/07 01:55:03;;;;;;;240.23;82.57;;;;;;;;;;5094414;28;20024;-75
2023/12/07 01:57:29;;;;;;;235.77;81.22;;;;;;;;;;5094508;28;20111;-75
2023/12/07 01:59:55;;;;;;;238.50;84.10;;;;;;;;;;5094492;28;20043;-74
2023/12/07 02:02:21;;;;;;;246.73;82.18;;;;;;;;;;5094102;28;20024;-74
2023/12/07 02:04:47;;;;;;;237.10;81.07;;;;;;;;;;5094220;28;20016;-74
2023/12/07 02:07:13;;;;;;;246.73;84.20;;;;;;;;;;5094178;28;20024;-74
2023/12/07 02:09:39;;;;;;;249.70;83.88;;;;;;;;;;5094109;28;20145;-74
2023/12/07 02:12:05;;;;;;;251.38;84.20;;;;;;;;;;5094453;28;20048;-73
2023/12/07 02:14:31;;;;;;;247.00;80.30;;;;;;;;;;5094365;28;20107;-73
2023/12/07 02:17:02;;;;;;;237.45;80.68;;;;;;;;;;5094165;28;20016;-73
2023/12/07 02:19:34;;;;;;;233.23;80.18;;;;;;;;;;5094168;28;20150;-73
2023/12/07 02:22:02;;;;;;;234.55;79.93;;;;;;;;;;5093820;28;20035;-75
2023/12/07 02:24:33;;;;;;;244.55;80.25;;;;;;;;;;5094034;28;20028;-74
2023/12/07 02:26:59;;;;;;;244.32;80.35;;;;;;;;;;5094387;28;20097;-74
2023/12/07 02:29:25;;;;;;;237.40;79.82;;;;;;;;;;5093994;28;20055;-74
2023/12/07 02:31:51;;;;;;;235.98;75.57;;;;;;;;;;5093895;28;20024;-75
2023/12/07 02:34:19;;;;;;;230.60;77.60;;;;;;;;;;5093775;28;20039;-75
2023/12/07 02:36:46;;;;;;;222.20;76.88;;;;;;;;;;5093091;28;20016;-75
2023/12/07 02:39:13;;;;;;;206.85;73.63;;;;;;;;;;5092484;28;20544;-73
2023/12/07 02:41:40;;;;;;;211.70;74.40;;;;;;;;;;5094478;28;20491;-74
2023/12/07 02:44:07;;;;;;;203.60;72.70;;;;;;;;;;5094179;28;20673;-75
2023/12/07 02:46:33;;;;;;;201.10;73.60;;;;;;;;;;5093544;28;20394;-75
2023/12/07 02:48:59;;;;;;;200.32;73.47;;;;;;;;;;5093302;28;20027;-75
2023/12/07 02:51:25;;;;;;;201.50;70.40;;;;;;;;;;5093205;28;20379;-75
2023/12/07 02:53:51;;;;;;;198.35;71.65;;;;;;;;;;5093434;28;20177;-75
2023/12/07 02:56:17;;;;;;;184.63;68.40;;;;;;;;;;5093522;28;20431;-74
2023/12/07 02:58:43;;;;;;;181.90;67.93;;;;;;;;;;5094018;28;20035;-73
2023/12/07 03:01:10;;;;;;;186.80;68.28;;;;;;;;;;5092198;28;20030;-74
2023/12/07 03:03:38;;;;;;;178.75;67.55;;;;;;;;;;5095249;28;20028;-75
2023/12/07 03:06:04;;;;;;;182.43;68.80;;;;;;;;;;5093168;28;20016;-74
2023/12/07 03:08:30;;;;;;;184.13;68.28;;;;;;;;;;5093396;28;20066;-75
2023/12/07 03:10:56;;;;;;;186.43;71.03;;;;;;;;;;5114059;28;20474;-76
2023/12/07 03:13:22;;;;;;;187.98;71.82;;;;;;;;;;5113623;28;20095;-75
2023/12/07 03:15:48;;;;;;;184.10;70.15;;;;;;;;;;5113496;28;20522;-75
2023/12/07 03:18:14;;;;;;;178.48;69.78;;;;;;;;;;5113384;28;20071;-75
2023/12/07 03:20:41;;;;;;;181.77;68.55;;;;;;;;;;5111386;28;20027;-73
2023/12/07 03:23:07;;;;;;;184.45;67.90;;;;;;;;;;5113059;28;20135;-74
2023/12/07 03:25:33;;;;;;;172.95;68.72;;;;;;;;;;5095776;28;20415;-74
2023/12/07 03:27:59;;;;;;;175.90;68.03;;;;;;;;;;5092734;28;20016;-75
2023/12/07 03:30:25;;;;;;;164.73;66.78;;;;;;;;;;5092653;28;20070;-76
2023/12/07 03:32:51;;;;;;;175.00;67.57;;;;;;;;;;5092904;28;20028;-76
2023/12/07 03:35:17;;;;;;;170.02;63.78;;;;;;;;;;5092471;28;20032;-76
2023/12/07 03:37:43;;;;;;;168.00;65.38;;;;;;;;;;5092014;28;20024;-76
2023/12/07 03:40:09;;;;;;;164.95;66.68;;;;;;;;;;5092950;28;20061;-77
2023/12/07 03:42:35;;;;;;;159.95;63.15;;;;;;;;;;5092989;28;20035;-74
2023/12/07 03:45:01;;;;;;;159.48;64.32;;;;;;;;;;5092122;28;20024;-75
2023/12/07 03:47:27;;;;;;;157.93;65.13;;;;;;;;;;5091841;28;20024;-75
2023/12/07 03:49:53;;;;;;;160.00;63.65;;;;;;;;;;5091781;28;20024;-75
2023/12/07 03:52:19;;;;;;;153.82;62.08;;;;;;;;;;5092797;28;20028;-75
2023/12/07 03:54:45;;;;;;;151.18;63.30;;;;;;;;;;5092716;28;20035;-74
2023/12/07 03:57:11;;;;;;;162.18;63.92;;;;;;;;;;5091483;28;20024;-74
2023/12/07 03:59:37;;;;;;;151.90;63.30;;;;;;;;;;5095170;28;20122;-76
2023/12/07 04:02:03;;;;;;;152.82;64.15;;;;;;;;;;5097635;28;20119;-74
2023/12/07 04:04:29;;;;;;;151.85;62.53;;;;;;;;;;5097250;28;20028;-75
2023/12/07 04:06:56;;;;;;;154.07;63.80;;;;;;;;;;5095362;28;20081;-75
2023/12/07 04:09:22;;;;;;;150.90;63.53;;;;;;;;;;5092205;28;20027;-74
2023/12/07 04:11:47;;;;;;;153.77;63.95;;;;;;;;;;5092062;28;20024;-74
2023/12/07 04:14:15;;;;;;;156.13;63.53;;;;;;;;;;5092448;28;20070;-77
2023/12/07 04:16:41;;;;;;;158.75;63.28;;;;;;;;;;5102776;28;20539;-80
2023/12/07 04:19:07;;;;;;;158.70;64.50;;;;;;;;;;5112584;28;20031;-80
2023/12/07 04:21:33;;;;;;;152.30;64.68;;;;;;;;;;5102995;28;20394;-74
2023/12/07 04:23:59;;;;;;;148.40;64.60;;;;;;;;;;5098347;28;20024;-74
2023/12/07 04:26:25;;;;;;;140.13;62.08;;;;;;;;;;5093666;28;20024;-77
2023/12/07 04:28:51;;;;;;;143.38;62.70;;;;;;;;;;5092830;28;20467;-74
2023/12/07 04:31:17;;;;;;;136.43;62.30;;;;;;;;;;5098367;28;20039;-74
2023/12/07 04:33:43;;;;;;;144.82;62.83;;;;;;;;;;5093178;28;20028;-76
2023/12/07 04:36:09;;;;;;;136.00;60.45;;;;;;;;;;5091626;28;20031;-75
2023/12/07 04:38:35;;;;;;;138.80;60.78;;;;;;;;;;5091505;28;20046;-77
2023/12/07 04:41:01;;;;;;;135.85;62.50;;;;;;;;;;5091809;28;20020;-76
2023/12/07 04:43:27;;;;;;;142.18;62.78;;;;;;;;;;5092090;28;20093;-73
2023/12/07 04:45:53;;;;;;;142.50;61.75;;;;;;;;;;5091783;28;20418;-73
2023/12/07 04:48:19;;;;;;;139.68;58.90;;;;;;;;;;5091392;28;20017;-74
2023/12/07 04:50:45;;;;;;;128.23;58.92;;;;;;;;;;5092147;28;20052;-75
2023/12/07 04:53:11;;;;;;;138.35;61.22;;;;;;;;;;5109500;28;20116;-74
2023/12/07 04:55:37;;;;;;;137.13;59.83;;;;;;;;;;5100312;28;20070;-75
2023/12/07 04:58:03;;;;;;;136.55;59.22;;;;;;;;;;5098535;28;20028;-75
2023/12/07 05:00:29;;;;;;;137.25;61.55;;;;;;;;;;5099623;28;20035;-75
2023/12/07 05:02:55;;;;;;;138.95;59.97;;;;;;;;;;5104488;28;20075;-76
2023/12/07 05:05:21;;;;;;;133.63;59.80;;;;;;;;;;5096497;28;20052;-77
2023/12/07 05:07:47;;;;;;;131.23;58.60;;;;;;;;;;5110530;28;20494;-74
2023/12/07 05:10:14;;;;;;;130.18;58.55;;;;;;;;;;5099798;28;20100;-73
2023/12/07 05:12:40;;;;;;;135.52;60.30;;;;;;;;;;5104997;28;20047;-74
2023/12/07 05:15:06;;;;;;;131.13;58.70;;;;;;;;;;5109705;28;20140;-73
2023/12/07 05:17:32;;;;;;;125.15;56.95;;;;;;;;;;5113857;28;20027;-79
2023/12/07 05:19:58;;;;;;;122.40;56.75;;;;;;;;;;5110548;28;20099;-75
2023/12/07 05:22:24;;;;;;;119.18;54.92;;;;;;;;;;5108494;28;20477;-73
2023/12/07 05:24:50;;;;;;;123.07;55.47;;;;;;;;;;5109667;28;20023;-72
2023/12/07 05:27:17;;;;;;;131.63;57.83;;;;;;;;;;5107392;28;20020;-73
2023/12/07 05:29:43;;;;;;;124.88;56.65;;;;;;;;;;5108806;28;20027;-72
2023/12/07 05:32:09;;;;;;;125.70;56.85;;;;;;;;;;5108332;28;20518;-74
2023/12/07 05:34:35;;;;;;;121.13;55.00;;;;;;;;;;5113268;28;20023;-74
2023/12/07 05:37:01;;;;;;;119.72;54.35;;;;;;;;;;5105780;28;20019;-74
2023/12/07 05:39:27;;;;;;;116.57;52.35;;;;;;;;;;5102998;28;20039;-74
2023/12/07 05:41:53;;;;;;;120.43;55.22;;;;;;;;;;5107446;28;20085;-73
2023/12/07 05:44:21;;;;;;;119.35;52.92;;;;;;;;;;5108415;28;20024;-74
2023/12/07 05:46:47;;;;;;;117.15;53.22;;;;;;;;;;5104220;28;20019;-74
2023/12/07 05:49:13;;;;;;;117.53;53.25;;;;;;;;;;5112785;28;20474;-74
2023/12/07 05:51:39;;;;;;;119.15;54.33;;;;;;;;;;5111965;28;20018;-74
2023/12/07 05:54:05;;;;;;;116.97;53.03;;;;;;;;;;5105860;28;20028;-74
2023/12/07 05:56:32;;;;;;;125.47;52.97;;;;;;;;;;5104158;28;20099;-74
2023/12/07 05:58:58;;;;;;;126.32;56.88;;;;;;;;;;5109918;28;20459;-75
2023/12/07 06:01:24;;;;;;;124.78;56.10;;;;;;;;;;5115721;28;20503;-75
2023/12/07 06:03:50;;;;;;;125.05;56.08;;;;;;;;;;5119400;28;20402;-79
2023/12/07 06:06:16;;;;;;;118.63;54.45;;;;;;;;;;5112266;28;20031;-79
2023/12/07 06:08:42;;;;;;;116.53;51.28;;;;;;;;;;5103757;28;20022;-78
2023/12/07 06:11:08;;;;;;;125.63;54.13;;;;;;;;;;5096696;28;20429;-76
2023/12/07 06:13:34;;;;;;;125.63;54.50;;;;;;;;;;5113531;28;20114;-76
2023/12/07 06:16:03;;;;;;;131.23;55.10;;;;;;;;;;5110786;28;20027;-76
2023/12/07 06:18:29;;;;;;;133.98;58.90;;;;;;;;;;5102666;28;20043;-77
2023/12/07 06:20:55;;;;;;;128.95;57.45;;;;;;;;;;5115023;28;20024;-80
2023/12/07 06:23:21;;;;;;;117.05;53.17;;;;;;;;;;5107536;28;20029;-77
2023/12/07 06:25:47;;;;;;;123.60;52.50;;;;;;;;;;5097848;28;20016;-76
2023/12/07 06:28:13;;;;;;;118.65;53.17;;;;;;;;;;5097624;28;20495;-75
2023/12/07 06:30:41;;;;;;;124.15;53.67;;;;;;;;;;5103846;28;20035;-76
2023/12/07 06:33:07;;;;;;;140.63;57.08;;;;;;;;;;5085934;28;20391;-75
2023/12/07 06:35:33;;;;;;;132.38;57.60;;;;;;;;;;5103585;28;20108;-75
2023/12/07 06:37:59;;;;;;;115.22;52.28;;;;;;;;;;5106679;28;20143;-75
2023/12/07 06:40:25;;;;;;;120.93;52.97;;;;;;;;;;5107788;28;20019;-75
2023/12/07 06:42:51;;;;;;;127.88;56.30;;;;;;;;;;5106483;28;20031;-73
2023/12/07 06:45:17;;;;;;;130.85;56.53;;;;;;;;;;5104340;28;20386;-74
2023/12/07 06:47:43;;;;;;;121.38;54.58;;;;;;;;;;5111606;28;20035;-75
2023/12/07 06:50:09;;;;;;;127.93;55.83;;;;;;;;;;5106893;28;20024;-74
2023/12/07 06:52:36;;;;;;;123.57;56.72;;;;;;;;;;5109743;28;20511;-74
2023/12/07 06:55:02;;;;;;;126.85;55.13;;;;;;;;;;5110267;28;20035;-74
2023/12/07 06:57:28;;;;;;;124.82;54.83;;;;;;;;;;5111427;28;20451;-73
2023/12/07 06:59:54;;;;;;;119.10;56.42;;;;;;;;;;5113534;28;20560;-75
2023/12/07 07:02:20;;;;;;;121.45;56.20;;;;;;;;;;5107303;28;20475;-74
2023/12/07 07:04:48;;;;;;;116.00;54.13;;;;;;;;;;5106971;28;20080;-77
2023/12/07 07:07:14;;;;;;;116.35;53.80;;;;;;;;;;5112827;28;20061;-74
2023/12/07 07:09:40;;;;;;;114.45;53.53;;;;;;;;;;5102058;28;20024;-74
2023/12/07 07:12:06;;;;;;;115.88;55.85;;;;;;;;;;5105600;28;20080;-74
2023/12/07 07:14:32;;;;;;;121.93;55.28;;;;;;;;;;5101329;28;20031;-74
2023/12/07 07:16:58;;;;;;;120.10;54.58;;;;;;;;;;5093179;28;20463;-73
2023/12/07 07:19:24;;;;;;;127.63;56.35;;;;;;;;;;5105035;28;20043;-74
2023/12/07 07:21:50;;;;;;;116.32;52.08;;;;;;;;;;5112995;28;20031;-76
2023/12/07 07:24:16;;;;;;;121.22;54.90;;;;;;;;;;5113319;28;20024;-75
2023/12/07 07:26:42;;;;;;;119.60;54.60;;;;;;;;;;5112965;28;20390;-73
2023/12/07 07:29:08;;;;;;;117.35;55.47;;;;;;;;;;5118504;28;20032;-74
2023/12/07 07:31:36;;;;;;;123.03;59.78;;;;;;;;;;5110248;28;20588;-75
2023/12/07 07:34:02;;;;;;;133.50;60.97;;;;;;;;;;5107826;28;20475;-75
2023/12/07 07:36:28;;;;;;;117.78;55.47;;;;;;;;;;5113169;28;20488;-77
2023/12/07 07:38:54;;;;;;;109.00;53.53;;;;;;;;;;5113066;28;20016;-76
2023/12/07 07:41:20;;;;;;;107.68;53.17;;;;;;;;;;5112713;28;20024;-77
2023/12/07 07:43:46;;;;;;;115.82;55.00;;;;;;;;;;5112607;28;20027;-74
2023/12/07 07:46:12;;;;;;;110.07;52.97;;;;;;;;;;5112804;28;20095;-77
2023/12/07 07:48:39;;;;;;;114.70;52.58;;;;;;;;;;5112881;28;20030;-74
2023/12/07 07:51:05;;;;;;;112.07;52.78;;;;;;;;;;5113204;28;20023;-77
2023/12/07 07:53:31;;;;;;;112.63;54.28;;;;;;;;;;5116520;28;20062;-77
2023/12/07 07:55:57;;;;;;;121.28;55.30;;;;;;;;;;5112994;28;20097;-75
2023/12/07 07:58:23;;;;;;;114.90;55.17;;;;;;;;;;5098468;28;20124;-76
2023/12/07 08:00:49;;;;;;;119.05;55.50;;;;;;;;;;5093923;28;20035;-79
2023/12/07 08:03:15;;;;;;;122.63;55.15;;;;;;;;;;5111376;28;20023;-75
2023/12/07 08:05:42;;;;;;;120.93;56.33;;;;;;;;;;5105204;28;20059;-75
2023/12/07 08:08:09;;;;;;;124.30;58.13;;;;;;;;;;5091888;28;20487;-74
2023/12/07 08:10:35;;;;;;;136.55;61.85;;;;;;;;;;5093959;28;20055;-73
2023/12/07 08:13:01;;;;;;;127.07;57.53;;;;;;;;;;5092794;28;20103;-75
2023/12/07 08:15:27;;;;;;;126.28;59.78;;;;;;;;;;5092268;28;20078;-75
2023/12/07 08:17:53;;;;;;;117.43;55.80;;;;;;;;;;5091719;28;20112;-75
2023/12/07 08:20:19;;;;;;;117.82;57.15;;;;;;;;;;5092195;28;20511;-76
2023/12/07 08:22:44;;;;;;;121.15;55.40;;;;;;;;;;5091614;28;20036;-75
2023/12/07 08:25:11;;;;;;;126.55;59.15;;;;;;;;;;5091803;28;20071;-73
2023/12/07 08:27:37;;;;;;;113.07;57.15;;;;;;;;;;5091711;28;20078;-73
2023/12/07 08:30:04;;;;;;;120.88;59.08;;;;;;;;;;5091959;28;20024;-74
2023/12/07 08:32:30;;;;;;;125.03;59.45;;;;;;;;;;5091753;28;20028;-73
2023/12/07 08:34:56;;;;;;;121.63;58.10;;;;;;;;;;5091746;28;20024;-74
2023/12/07 08:37:22;;;;;;;112.45;55.65;;;;;;;;;;5091136;28;20028;-75
2023/12/07 08:39:48;;;;;;;117.65;55.70;;;;;;;;;;5092695;28;20059;-75
2023/12/07 08:42:14;;;;;;;117.05;57.40;;;;;;;;;;5094552;28;20024;-74
2023/12/07 08:44:41;;;;;;;115.15;57.08;;;;;;;;;;5091671;28;20043;-77
2023/12/07 08:47:07;;;;;;;111.38;56.25;;;;;;;;;;5099851;28;20027;-74
2023/12/07 08:49:33;;;;;;;104.43;54.95;;;;;;;;;;5094865;28;20020;-79
2023/12/07 08:51:59;;;;;;;109.35;58.88;;;;;;;;;;5094988;28;20437;-78
2023/12/07 08:54:25;;;;;;;115.20;57.80;;;;;;;;;;5093728;28;20540;-76
2023/12/07 08:56:51;;;;;;;118.93;57.90;;;;;;;;;;5092544;28;20430;-75
2023/12/07 08:59:17;;;;;;;104.13;55.25;;;;;;;;;;5091645;28;20103;-77
2023/12/07 09:01:43;;;;;;;108.53;55.75;;;;;;;;;;5091462;28;20048;-75
2023/12/07 09:04:09;;;;;;;111.75;58.20;;;;;;;;;;5091610;28;20055;-76
2023/12/07 09:06:36;;;;;;;111.40;58.00;;;;;;;;;;5092501;28;20260;-79
2023/12/07 09:09:04;;;;;;;119.80;59.28;;;;;;;;;;5095505;28;20026;-80
2023/12/07 09:11:30;;;;;;;120.18;61.72;;;;;;;;;;5091612;28;20044;-76
2023/12/07 09:13:57;;;;;;;130.63;62.10;;;;;;;;;;5091454;28;20170;-76
2023/12/07 09:16:23;;;;;;;129.48;63.47;;;;;;;;;;5091854;28;20031;-77
2023/12/07 09:18:50;;;;;;;131.02;64.10;;;;;;;;;;5093171;28;20399;-78
2023/12/07 09:21:16;;;;;;;129.77;65.50;;;;;;;;;;5092337;28;20017;-76
2023/12/07 09:23:42;;;;;;;135.43;65.00;;;;;;;;;;5092572;28;20032;-77
2023/12/07 09:26:08;;;;;;;127.78;63.97;;;;;;;;;;5091682;28;20025;-77
2023/12/07 09:28:34;;;;;;;131.50;63.35;;;;;;;;;;5091502;28;20103;-77
2023/12/07 09:31:00;;;;;;;120.75;61.65;;;;;;;;;;5091354;28;20364;-73
2023/12/07 09:33:26;;;;;;;132.90;66.25;;;;;;;;;;5091665;28;20460;-74
2023/12/07 09:35:52;;;;;;;138.80;66.40;;;;;;;;;;5092851;28;20028;-76
2023/12/07 09:38:18;;;;;;;138.90;66.88;;;;;;;;;;5098187;28;20031;-74
2023/12/07 09:40:46;;;;;;;139.70;67.72;;;;;;;;;;5094149;28;20398;-75
2023/12/07 09:43:12;;;;;;;134.20;67.28;;;;;;;;;;5090854;28;20185;-75
2023/12/07 09:45:38;;;;;;;136.65;70.50;;;;;;;;;;5091110;28;20024;-74
2023/12/07 09:48:04;;;;;;;139.80;69.25;;;;;;;;;;5091109;28;20051;-74
2023/12/07 09:50:31;;;;;;;133.23;65.85;;;;;;;;;;5094606;28;20097;-75
2023/12/07 09:52:57;;;;;;;148.23;67.78;;;;;;;;;;5098756;28;20083;-76
2023/12/07 09:55:24;;;;;;;129.85;65.43;;;;;;;;;;5099310;28;20024;-75
2023/12/07 09:57:50;;;;;;;133.88;65.18;;;;;;;;;;5094563;28;20024;-75
2023/12/07 10:00:17;;;;;;;132.25;64.57;;;;;;;;;;5095010;28;20511;-75
2023/12/07 10:02:45;;;;;;;134.48;65.15;;;;;;;;;;5098291;28;20424;-76
2023/12/07 10:05:13;;;;;;;135.38;67.43;;;;;;;;;;5093827;28;20051;-74
2023/12/07 10:07:41;;;;;;;125.93;63.25;;;;;;;;;;5094178;28;20024;-76
2023/12/07 10:10:07;;;;;;;131.27;66.03;;;;;;;;;;5098108;28;20035;-75
2023/12/07 10:12:34;;;;;;;117.18;58.97;;;;;;;;;;5097409;28;20028;-76
2023/12/07 10:15:03;;;;;;;115.78;59.28;;;;;;;;;;5095047;28;20055;-74
2023/12/07 10:18:04;;;;;;;115.10;59.22;;;;;;;;;;5094040;28;20028;-76
2023/12/07 10:20:30;;;;;;;115.63;59.92;;;;;;;;;;5031658;28;20037;-74
2023/12/07 10:23:09;;;;;;;115.07;58.22;;;;;;;;;;5081661;28;20032;-74
2023/12/07 10:25:42;;;;;;;119.85;60.13;;;;;;;;;;5094137;28;20095;-73
2023/12/07 10:28:12;;;;;;;118.75;60.40;;;;;;;;;;5097414;28;20020;-76
2023/12/07 10:30:38;;;;;;;114.25;60.67;;;;;;;;;;5096589;28;20016;-75
2023/12/07 10:33:06;;;;;;;113.93;58.58;;;;;;;;;;5100543;28;20024;-77
2023/12/07 10:35:32;;;;;;;116.28;59.40;;;;;;;;;;5095260;28;20024;-77
2023/12/07 10:37:58;;;;;;;105.35;55.40;;;;;;;;;;5094578;28;20039;-78
2023/12/07 10:40:24;;;;;;;111.03;55.97;;;;;;;;;;5097288;28;20027;-79
2023/12/07 10:42:51;;;;;;;128.35;59.10;;;;;;;;;;5095506;28;20107;-76
2023/12/07 10:45:18;;;;;;;109.47;58.38;;;;;;;;;;5094549;28;20036;-75
2023/12/07 10:47:44;;;;;;;112.15;58.53;;;;;;;;;;5093632;28;20016;-73
2023/12/07 10:50:11;;;;;;;114.35;58.88;;;;;;;;;;5098597;28;20042;-74
2023/12/07 10:52:44;;;;;;;118.03;59.83;;;;;;;;;;5100926;28;20027;-75
2023/12/07 10:55:13;;;;;;;127.32;62.30;;;;;;;;;;5093533;28;20027;-74
2023/12/07 10:57:39;;;;;;;113.95;59.80;;;;;;;;;;5093194;28;20236;-74
2023/12/07 11:00:07;;;;;;;117.85;59.40;;;;;;;;;;5093384;28;20039;-75
2023/12/07 11:02:33;;;;;;;116.68;59.20;;;;;;;;;;5095276;28;20368;-76
2023/12/07 11:05:00;;;;;;;114.07;60.38;;;;;;;;;;5094003;28;20386;-75
2023/12/07 11:07:28;;;;;;;121.90;61.35;;;;;;;;;;5093612;28;20024;-75
2023/12/07 11:09:59;;;;;;;114.13;58.63;;;;;;;;;;5103770;28;20023;-75
2023/12/07 11:12:47;;;;;;;125.50;60.20;;;;;;;;;;5097588;28;20023;-74
2023/12/07 11:15:14;;;;;;;119.05;59.63;;;;;;;;;;5096522;28;20027;-75
2023/12/07 11:17:53;;;;;;;115.68;59.33;;;;;;;;;;5097109;28;20422;-77
2023/12/07 11:20:23;;;;;;;120.05;61.00;;;;;;;;;;5095115;28;20401;-78
2023/12/07 11:22:50;;;;;;;120.07;60.63;;;;;;;;;;5092989;28;20052;-75
2023/12/07 11:25:16;;;;;;;108.70;57.03;;;;;;;;;;5092309;28;20016;-76
2023/12/07 11:27:46;;;;;;;114.40;58.53;;;;;;;;;;5092347;28;20027;-75
2023/12/07 11:30:14;;;;;;;117.20;59.63;;;;;;;;;;5091876;28;20024;-75
2023/12/07 11:32:40;;;;;;;110.13;56.30;;;;;;;;;;5092209;28;20048;-75
2023/12/07 11:35:06;;;;;;;102.32;55.25;;;;;;;;;;5091731;28;20024;-74
2023/12/07 11:37:51;;;;;;;92.70;52.20;;;;;;;;;;5091726;28;20024;-74
2023/12/07 11:40:17;;;;;;;93.70;51.88;;;;;;;;;;5091744;28;20036;-74
2023/12/07 11:42:43;;;;;;;98.50;53.83;;;4.50;99.90;;;;;;5090150;28;20032;-73
2023/12/07 11:45:09;;;;;;;93.63;52.75;;;4.40;99.90;;;;;;5091480;28;20471;-73
2023/12/07 11:47:34;;;;;;;92.82;52.13;;;4.60;99.90;;;;;;5091296;28;20031;-77
2023/12/07 11:50:03;;;;;;;97.35;52.42;;;4.20;99.90;;;;;;5091722;28;20451;-75
2023/12/07 11:52:29;;;;;;;94.97;53.83;;;4.10;99.90;;;;;;5091437;28;20024;-77
2023/12/07 11:54:54;;;;;;;90.85;50.45;;;4.20;99.90;;;;;;5091509;28;20046;-76
2023/12/07 11:57:20;;;;;;;89.45;50.55;;;4.30;99.90;;;;;;5091281;28;20024;-72
2023/12/07 11:59:49;;;;;;;85.57;49.42;;;4.10;99.90;;;;;;5090864;28;20467;-77
2023/12/07 12:02:15;;;;;;;93.25;51.67;;;4.20;99.90;;;;;;5091479;28;20020;-74
2023/12/07 12:04:41;;;;;;;80.40;46.97;;;4.40;99.90;;;;;;5091857;28;20150;-74
2023/12/07 12:07:07;;;;;;;80.72;46.47;;;4.40;99.90;;;;;;5091975;28;20039;-76
2023/12/07 12:09:34;;;;;;;84.88;48.47;;;4.40;99.90;;;;;;5091889;28;20382;-74
2023/12/07 12:12:00;;;;;;;76.60;45.92;;;4.40;99.90;;;;;;5092500;28;20394;-78
2023/12/07 12:14:27;;;;;;;83.28;48.80;;;4.70;99.90;;;;;;5091938;28;20093;-76
2023/12/07 12:16:53;;;;;;;81.07;47.70;;;4.60;99.90;;;;;;5091540;28;20017;-74
2023/12/07 12:19:19;;;;;;;81.75;47.72;;;4.60;99.90;;;;;;5091173;28;20020;-75
2023/12/07 12:21:46;;;;;;;91.25;50.50;;;4.60;99.90;;;;;;5107240;28;20027;-74
2023/12/07 12:24:12;;;;;;;80.28;48.58;;;4.70;99.90;;;;;;5110783;28;20364;-76
2023/12/07 12:26:40;;;;;;;81.53;47.92;;;4.60;99.90;;;;;;5110907;28;20026;-76
2023/12/07 12:29:08;;;;;;;82.65;46.92;;;4.70;99.90;;;;;;5110978;28;20016;-74
2023/12/07 12:31:34;;;;;;;82.07;48.67;;;4.70;99.90;;;;;;5110896;28;20111;-74
2023/12/07 12:34:05;;;;;;;84.78;48.90;;;4.50;99.90;;;;;;5111333;28;20486;-74
2023/12/07 12:36:31;;;;;;;88.97;50.72;;;4.50;99.90;;;;;;5111249;28;20399;-74
2023/12/07 12:38:57;;;;;;;85.50;51.00;;;4.70;99.90;;;;;;5110916;28;20035;-73
2023/12/07 12:41:23;;;;;;;80.13;46.60;;;4.60;99.90;;;;;;5112157;28;20024;-75
2023/12/07 12:43:49;;;;;;;75.70;47.15;;;4.60;99.90;;;;;;5111132;28;20042;-74
2023/12/07 12:46:16;;;;;;;104.53;59.30;;;4.60;99.90;;;;;;5111509;28;20012;-73
2023/12/07 12:48:57;;;;;;;89.68;51.83;;;4.90;99.90;;;;;;5111120;28;20024;-74
2023/12/07 12:51:25;;;;;;;79.07;47.50;;;4.60;99.90;;;;;;5111288;28;20031;-75
2023/12/07 12:53:52;;;;;;;80.43;48.15;;;4.70;99.90;;;;;;5111030;28;20380;-74
2023/12/07 12:56:20;;;;;;;78.60;47.70;;;4.70;99.90;;;;;;5112817;28;20051;-76
2023/12/07 12:58:46;;;;;;;85.45;50.15;;;4.60;99.90;;;;;;5112008;28;20054;-75
2023/12/07 13:01:11;;;;;;;80.68;48.38;;;4.80;99.90;;;;;;5119105;28;20531;-74
2023/12/07 13:03:37;;;;;;;79.57;49.22;;;5.30;99.90;;;;;;5114043;28;20020;-76
2023/12/07 13:06:03;;;;;;;84.55;51.20;;;4.60;99.90;;;;;;5111763;28;20020;-78
2023/12/07 13:08:29;;;;;;;91.68;52.95;;;4.50;99.90;;;;;;5111285;28;20498;-75
2023/12/07 13:10:55;;;;;;;92.13;51.65;;;4.70;99.90;;;;;;5112081;28;20020;-73
2023/12/07 13:13:20;;;;;;;90.88;51.97;;;4.60;99.90;;;;;;5111304;28;20069;-76
2023/12/07 13:15:46;;;;;;;96.32;52.40;;;4.60;99.90;;;;;;5110942;28;20055;-74
2023/12/07 13:18:11;;;;;;;82.93;49.95;;;4.60;99.90;;;;;;5111636;28;20055;-73
2023/12/07 13:20:39;;;;;;;83.53;49.28;;;4.60;99.90;;;;;;5111538;28;20031;-76
2023/12/07 13:23:04;;;;;;;89.43;52.42;;;4.80;99.90;;;;;;5112050;28;20054;-77
2023/12/07 13:25:30;;;;;;;85.72;49.35;;;4.70;99.90;;;;;;5116244;28;20020;-79
2023/12/07 13:27:56;;;;;;;86.38;51.00;;;4.60;99.90;;;;;;5116060;28;20057;-78
2023/12/07 13:30:21;;;;;;;92.00;51.78;;;4.80;99.90;;;;;;5117760;28;20026;-77
2023/12/07 13:32:47;;;;;;;87.20;51.60;;;4.70;99.90;;;;;;5118146;28;20049;-77
2023/12/07 13:35:13;;;;;;;88.50;51.42;;;4.80;99.90;;;;;;5117669;28;20097;-78
2023/12/07 13:37:39;;;;;;;90.10;51.92;;;4.80;99.90;;;;;;5120444;28;20036;-77
2023/12/07 13:40:09;;;;;;;86.80;51.22;;;4.70;99.90;;;;;;5118334;28;20092;-77
2023/12/07 13:42:36;;;;;;;86.70;50.75;;;4.70;99.90;;;;;;5119702;28;20024;-79
2023/12/07 13:45:02;;;;;;;94.97;51.67;;;5.00;99.90;;;;;;5118237;28;20028;-78